Time;durP1;ratioP1;P1;durP2;ratioP2;P2;SDS_P1;SDS_P2;PMS_P1;PMS_P2;Temp;Humidity;BMP_temperature;BMP_pressure;BME280_temperature;BME280_humidity;BME280_pressure;Samples;Min_cycle;Max_cycle;Signal;HPM_P1;HPM_P2
2023/08/06 00:00:58;;;;;;;;;;;21.60;55.50;;;;;;5110083;27;19945;-61
2023/08/06 00:03:25;;;;;;;;;;;21.60;55.60;;;;;;5108170;27;19935;-60
2023/08/06 00:05:51;;;;;;;;;;;21.60;55.60;;;;;;5099178;27;19923;-59
2023/08/06 00:08:18;;;;;;;;;;;21.70;55.80;;;;;;5125215;27;19976;-60
2023/08/06 00:10:45;;;;;;;;;;;21.70;55.80;;;;;;5096828;28;19992;-60
2023/08/06 00:13:13;;;;;;;;;;;21.70;55.70;;;;;;5112542;27;19935;-57
2023/08/06 00:15:40;;;;;;;;;;;21.70;55.70;;;;;;5096028;27;19931;-58
2023/08/06 00:18:07;;;;;;;;;;;21.60;55.70;;;;;;5105635;27;19930;-60
2023/08/06 00:20:33;;;;;;;;;;;21.70;55.80;;;;;;5116457;27;20520;-59
2023/08/06 00:23:00;;;;;;;;;;;21.70;55.80;;;;;;5096823;27;19960;-60
2023/08/06 00:25:27;;;;;;;;;;;21.60;55.70;;;;;;5111680;27;19931;-60
2023/08/06 00:27:54;;;;;;;;;;;21.70;55.80;;;;;;5102859;28;19923;-60
2023/08/06 00:30:22;;;;;;;;;;;21.70;55.80;;;;;;5099176;27;19967;-60
2023/08/06 00:32:49;;;;;;;;;;;21.70;55.90;;;;;;5101709;28;19974;-60
2023/08/06 00:35:16;;;;;;;;;;;21.70;55.90;;;;;;5108037;27;19927;-60
2023/08/06 00:37:42;;;;;;;;;;;21.70;56.00;;;;;;5104524;28;19946;-59
2023/08/06 00:40:09;;;;;;;;;;;21.70;56.00;;;;;;5111193;27;19928;-59
2023/08/06 00:42:36;;;;;;;;;;;21.70;56.00;;;;;;5125002;27;19951;-59
2023/08/06 00:45:03;;;;;;;;;;;21.70;56.00;;;;;;5099128;28;20377;-60
2023/08/06 00:47:31;;;;;;;;;;;21.60;56.00;;;;;;5115820;27;19954;-59
2023/08/06 00:49:58;;;;;;;;;;;21.70;56.00;;;;;;5104851;28;19924;-60
2023/08/06 00:52:24;;;;;;;;;;;21.70;56.10;;;;;;5089838;28;19928;-60
2023/08/06 00:54:51;;;;;;;;;;;21.70;56.10;;;;;;5113188;27;19923;-60
2023/08/06 00:57:18;;;;;;;;;;;21.70;56.20;;;;;;5097017;27;19923;-59
2023/08/06 00:59:45;;;;;;;;;;;21.70;56.20;;;;;;5101560;27;19923;-60
2023/08/06 01:02:11;;;;;;;;;;;21.70;56.20;;;;;;5096920;28;19924;-59
2023/08/06 01:04:40;;;;;;;;;;;21.70;56.30;;;;;;5097822;27;19993;-59
2023/08/06 01:07:10;;;;;;;;;;;21.70;56.20;;;;;;5095908;28;19924;-59
2023/08/06 01:09:40;;;;;;;;;;;21.70;56.30;;;;;;5106491;28;19920;-59
2023/08/06 01:12:08;;;;;;;;;;;21.70;56.30;;;;;;5109274;27;19932;-59
2023/08/06 01:14:36;;;;;;;;;;;21.70;56.30;;;;;;5112990;27;19927;-59
2023/08/06 01:17:02;;;;;;;;;;;21.60;56.20;;;;;;5109352;27;19927;-58
2023/08/06 01:19:29;;;;;;;;;;;21.60;56.30;;;;;;5098195;27;19927;-61
2023/08/06 01:21:57;;;;;;;;;;;21.70;56.30;;;;;;5116530;27;19932;-62
2023/08/06 01:24:24;;;;;;;;;;;21.60;56.20;;;;;;5094807;27;19924;-61
2023/08/06 01:26:52;;;;;;;;;;;21.70;56.40;;;;;;5101954;27;19923;-59
2023/08/06 01:29:20;;;;;;;;;;;21.60;56.30;;;;;;5119118;27;20438;-58
2023/08/06 01:31:47;;;;;;;;;;;21.60;56.30;;;;;;5091116;27;19927;-59
2023/08/06 01:34:14;;;;;;;;;;;21.70;56.40;;;;;;5114830;27;19928;-60
2023/08/06 01:36:41;;;;;;;;;;;21.60;56.40;;;;;;5088349;28;20334;-60
2023/08/06 01:39:10;;;;;;;;;;;21.70;56.40;;;;;;5093576;28;19924;-60
2023/08/06 01:41:36;;;;;;;;;;;21.60;56.40;;;;;;5111798;27;19935;-60
2023/08/06 01:44:03;;;;;;;;;;;21.60;56.40;;;;;;5093382;27;19927;-59
2023/08/06 01:46:30;;;;;;;;;;;21.60;56.50;;;;;;5093162;28;19930;-61
2023/08/06 01:48:57;;;;;;;;;;;21.70;56.50;;;;;;5088253;28;19927;-60
2023/08/06 01:51:23;;;;;;;;;;;21.60;56.50;;;;;;5094616;28;19928;-58
2023/08/06 01:53:50;;;;;;;;;;;21.60;56.50;;;;;;5089883;27;19969;-59
2023/08/06 01:56:18;;;;;;;;;;;21.70;56.60;;;;;;5088410;28;19924;-59
2023/08/06 01:58:45;;;;;;;;;;;21.60;56.50;;;;;;5096218;28;19924;-60
2023/08/06 02:01:12;;;;;;;;;;;21.60;56.50;;;;;;5084580;28;19931;-60
2023/08/06 02:03:39;;;;;;;;;;;21.60;56.60;;;;;;5114851;27;19923;-59
2023/08/06 02:06:05;;;;;;;;;;;21.60;56.60;;;;;;5090734;28;19927;-60
2023/08/06 02:08:32;;;;;;;;;;;21.60;56.60;;;;;;5115590;27;19923;-59
2023/08/06 02:10:59;;;;;;;;;;;21.60;56.60;;;;;;5101590;28;19927;-59
2023/08/06 02:13:27;;;;;;;;;;;21.60;56.70;;;;;;5094630;27;19974;-59
2023/08/06 02:15:54;;;;;;;;;;;21.60;56.60;;;;;;5116503;27;19934;-59
2023/08/06 02:18:21;;;;;;;;;;;21.70;56.70;;;;;;5115761;27;19963;-59
2023/08/06 02:20:55;;;;;;;;;;;21.60;56.70;;;;;;5110729;27;19924;-59
2023/08/06 02:23:22;;;;;;;;;;;21.60;56.70;;;;;;5093843;27;20382;-60
2023/08/06 02:25:49;;;;;;;;;;;21.70;56.80;;;;;;5090877;28;19985;-61
2023/08/06 02:28:15;;;;;;;;;;;21.60;56.70;;;;;;5088357;27;19928;-59
2023/08/06 02:30:51;;;;;;;;;;;21.70;56.80;;;;;;5092012;28;19924;-60
2023/08/06 02:33:18;;;;;;;;;;;21.60;56.70;;;;;;5107174;27;19924;-59
2023/08/06 02:35:45;;;;;;;;;;;21.60;56.70;;;;;;5094029;27;20353;-60
2023/08/06 02:38:12;;;;;;;;;;;21.60;56.70;;;;;;5087715;28;19932;-59
2023/08/06 02:40:43;;;;;;;;;;;21.60;56.80;;;;;;5095026;27;19927;-59
2023/08/06 02:43:10;;;;;;;;;;;21.60;56.70;;;;;;5119174;27;19969;-59
2023/08/06 02:45:37;;;;;;;;;;;21.60;56.70;;;;;;5103488;27;19928;-58
2023/08/06 02:48:05;;;;;;;;;;;21.60;56.70;;;;;;5095974;28;19931;-60
2023/08/06 02:50:32;;;;;;;;;;;21.60;56.70;;;;;;5126704;27;19923;-60
2023/08/06 02:52:59;;;;;;;;;;;21.60;56.70;;;;;;5101395;28;19927;-60
2023/08/06 02:55:25;;;;;;;;;;;21.60;56.70;;;;;;5092038;27;19924;-59
2023/08/06 02:57:52;;;;;;;;;;;21.60;56.80;;;;;;5121440;27;20402;-61
2023/08/06 03:00:19;;;;;;;;;;;21.60;56.70;;;;;;5109654;27;19924;-60
2023/08/06 03:02:46;;;;;;;;;;;21.60;56.70;;;;;;5095678;28;20430;-60
2023/08/06 03:05:14;;;;;;;;;;;21.60;56.70;;;;;;5088501;27;20377;-60
2023/08/06 03:07:41;;;;;;;;;;;21.60;56.80;;;;;;5093711;28;19924;-60
2023/08/06 03:10:08;;;;;;;;;;;21.60;56.80;;;;;;5093475;27;19934;-59
2023/08/06 03:12:35;;;;;;;;;;;21.60;56.80;;;;;;5088313;27;19927;-59
2023/08/06 03:15:01;;;;;;;;;;;21.60;56.80;;;;;;5095116;28;19923;-60
2023/08/06 03:17:28;;;;;;;;;;;21.60;56.80;;;;;;5088446;28;19930;-59
2023/08/06 03:19:55;;;;;;;;;;;21.60;56.90;;;;;;5086049;28;19931;-60
2023/08/06 03:22:23;;;;;;;;;;;21.60;56.90;;;;;;5113592;28;19946;-59
2023/08/06 03:24:51;;;;;;;;;;;21.60;56.90;;;;;;5090127;28;19924;-59
2023/08/06 03:27:18;;;;;;;;;;;21.60;56.90;;;;;;5097175;28;19983;-60
2023/08/06 03:29:44;;;;;;;;;;;21.60;56.90;;;;;;5105973;28;19923;-61
2023/08/06 03:32:11;;;;;;;;;;;21.60;56.90;;;;;;5112573;28;19978;-59
2023/08/06 03:34:38;;;;;;;;;;;21.60;57.00;;;;;;5102764;28;19939;-60
2023/08/06 03:37:05;;;;;;;;;;;21.60;57.00;;;;;;5097425;28;19935;-60
2023/08/06 03:39:33;;;;;;;;;;;21.60;57.00;;;;;;5109771;28;19924;-58
2023/08/06 03:41:59;;;;;;;;;;;21.60;57.00;;;;;;5123225;27;19928;-60
2023/08/06 03:44:26;;;;;;;;;;;21.60;57.00;;;;;;5088171;28;19924;-58
2023/08/06 03:46:53;;;;;;;;;;;21.60;57.10;;;;;;5104430;28;19930;-60
2023/08/06 03:49:20;;;;;;;;;;;21.60;57.10;;;;;;5089294;28;19931;-59
2023/08/06 03:51:47;;;;;;;;;;;21.60;57.10;;;;;;5090727;28;19927;-59
2023/08/06 03:54:13;;;;;;;;;;;21.60;57.10;;;;;;5097379;28;19924;-59
2023/08/06 03:56:42;;;;;;;;;;;21.60;57.10;;;;;;5082302;28;19924;-59
2023/08/06 03:59:08;;;;;;;;;;;21.60;57.10;;;;;;5082784;28;19928;-59
2023/08/06 04:01:35;;;;;;;;;;;21.60;57.10;;;;;;5100552;28;20349;-60
2023/08/06 04:04:02;;;;;;;;;;;21.60;57.10;;;;;;5086089;28;19950;-60
2023/08/06 04:06:29;;;;;;;;;;;21.60;57.10;;;;;;5103878;28;19928;-59
2023/08/06 04:08:56;;;;;;;;;;;21.60;57.10;;;;;;5111000;28;19975;-61
2023/08/06 04:11:23;;;;;;;;;;;21.60;57.10;;;;;;5092001;28;19923;-59
2023/08/06 04:13:51;;;;;;;;;;;21.60;57.20;;;;;;5089122;28;19928;-60
2023/08/06 04:16:18;;;;;;;;;;;21.60;57.20;;;;;;5100018;28;19924;-61
2023/08/06 04:18:45;;;;;;;;;;;21.60;57.20;;;;;;5081916;28;19924;-59
2023/08/06 04:21:12;;;;;;;;;;;21.60;57.20;;;;;;5091034;28;19928;-60
2023/08/06 04:23:39;;;;;;;;;;;21.60;57.20;;;;;;5092567;28;19950;-60
2023/08/06 04:26:06;;;;;;;;;;;21.60;57.20;;;;;;5091270;28;20170;-61
2023/08/06 04:28:33;;;;;;;;;;;21.60;57.20;;;;;;5115719;28;19976;-59
2023/08/06 04:31:01;;;;;;;;;;;21.60;57.30;;;;;;5097075;27;19930;-60
2023/08/06 04:33:28;;;;;;;;;;;21.60;57.20;;;;;;5098007;27;19977;-59
2023/08/06 04:35:55;;;;;;;;;;;21.60;57.80;;;;;;5101713;28;19928;-60
2023/08/06 04:38:21;;;;;;;;;;;21.60;57.20;;;;;;5126028;27;19923;-60
2023/08/06 04:40:48;;;;;;;;;;;21.60;57.20;;;;;;5107411;27;19919;-61
2023/08/06 04:43:15;;;;;;;;;;;21.60;57.20;;;;;;5091905;27;19973;-58
2023/08/06 04:45:46;;;;;;;;;;;21.60;57.20;;;;;;5109387;27;19953;-59
2023/08/06 04:48:14;;;;;;;;;;;21.60;57.20;;;;;;5094236;28;19924;-59
2023/08/06 04:50:44;;;;;;;;;;;21.60;57.20;;;;;;5094346;28;19991;-60
2023/08/06 04:53:10;;;;;;;;;;;21.60;57.20;;;;;;5098715;28;19924;-59
2023/08/06 04:55:37;;;;;;;;;;;21.60;57.20;;;;;;5089408;28;20022;-61
2023/08/06 04:58:04;;;;;;;;;;;21.60;57.20;;;;;;5086618;28;19946;-60
2023/08/06 05:00:31;;;;;;;;;;;21.60;57.20;;;;;;5108016;28;19988;-61
2023/08/06 05:02:58;;;;;;;;;;;21.60;57.20;;;;;;5113290;27;19931;-60
2023/08/06 05:05:26;;;;;;;;;;;21.60;57.20;;;;;;5095823;27;19928;-59
2023/08/06 05:07:54;;;;;;;;;;;21.60;57.30;;;;;;5115446;27;19978;-61
2023/08/06 05:10:21;;;;;;;;;;;21.60;57.30;;;;;;5110886;27;20013;-60
2023/08/06 05:12:48;;;;;;;;;;;21.60;57.30;;;;;;5114286;27;20026;-61
2023/08/06 05:15:15;;;;;;;;;;;21.60;57.30;;;;;;5111126;27;19924;-61
2023/08/06 05:17:41;;;;;;;;;;;21.60;57.30;;;;;;5111437;27;19985;-60
2023/08/06 05:20:09;;;;;;;;;;;21.60;57.30;;;;;;5107994;27;19925;-60
2023/08/06 05:22:37;;;;;;;;;;;21.60;57.30;;;;;;5095657;27;19927;-60
2023/08/06 05:25:04;;;;;;;;;;;21.60;57.30;;;;;;5090910;28;20435;-60
2023/08/06 05:27:31;;;;;;;;;;;21.60;57.30;;;;;;5122971;27;19930;-60
2023/08/06 05:29:57;;;;;;;;;;;21.60;57.30;;;;;;5104359;27;19980;-60
2023/08/06 05:32:24;;;;;;;;;;;21.60;57.90;;;;;;5098299;27;19973;-61
2023/08/06 05:34:51;;;;;;;;;;;21.60;57.30;;;;;;5100745;28;20281;-61
2023/08/06 05:37:18;;;;;;;;;;;21.60;57.30;;;;;;5087908;28;19931;-60
2023/08/06 05:39:46;;;;;;;;;;;21.60;57.30;;;;;;5113188;27;19927;-61
2023/08/06 05:42:13;;;;;;;;;;;21.60;57.30;;;;;;5116596;27;19924;-61
2023/08/06 05:44:40;;;;;;;;;;;21.60;57.30;;;;;;5092089;27;19980;-59
2023/08/06 05:47:06;;;;;;;;;;;21.60;57.30;;;;;;5093508;28;19978;-61
2023/08/06 05:49:33;;;;;;;;;;;21.60;57.30;;;;;;5093406;27;19927;-60
2023/08/06 05:52:00;;;;;;;;;;;21.60;57.30;;;;;;5092178;28;19928;-60
2023/08/06 05:54:27;;;;;;;;;;;21.60;57.30;;;;;;5091428;27;20388;-59
2023/08/06 05:56:55;;;;;;;;;;;21.60;57.30;;;;;;5110037;27;19976;-60
2023/08/06 05:59:22;;;;;;;;;;;21.60;57.30;;;;;;5107910;27;19981;-60
2023/08/06 06:01:48;;;;;;;;;;;21.60;57.90;;;;;;5086968;27;20000;-61
2023/08/06 06:04:15;;;;;;;;;;;21.60;57.30;;;;;;5109833;27;19923;-61
2023/08/06 06:06:42;;;;;;;;;;;21.60;57.30;;;;;;5097697;27;19923;-59
2023/08/06 06:09:09;;;;;;;;;;;21.60;57.30;;;;;;5091537;27;19959;-60
2023/08/06 06:11:36;;;;;;;;;;;21.60;57.30;;;;;;5109853;27;19923;-60
2023/08/06 06:14:04;;;;;;;;;;;21.60;57.30;;;;;;5091769;28;19994;-59
2023/08/06 06:16:31;;;;;;;;;;;21.60;57.30;;;;;;5096477;27;20279;-59
2023/08/06 06:18:58;;;;;;;;;;;21.60;57.30;;;;;;5096778;27;19938;-60
2023/08/06 06:21:25;;;;;;;;;;;21.60;57.30;;;;;;5098661;27;19978;-60
2023/08/06 06:23:52;;;;;;;;;;;21.60;57.30;;;;;;5116424;27;19973;-61
2023/08/06 06:26:19;;;;;;;;;;;21.60;57.30;;;;;;5090753;28;19932;-61
2023/08/06 06:28:45;;;;;;;;;;;21.60;57.30;;;;;;5112627;27;19977;-60
2023/08/06 06:31:14;;;;;;;;;;;21.60;57.30;;;;;;5113160;27;19959;-61
2023/08/06 06:33:41;;;;;;;;;;;21.60;57.30;;;;;;5116309;27;19928;-59
2023/08/06 06:36:08;;;;;;;;;;;21.60;57.30;;;;;;5124020;27;20293;-60
2023/08/06 06:38:35;;;;;;;;;;;21.60;57.30;;;;;;5097310;28;19959;-59
2023/08/06 06:41:03;;;;;;;;;;;21.60;57.30;;;;;;5100508;28;21222;-60
2023/08/06 06:43:29;;;;;;;;;;;21.60;57.30;;;;;;5126257;27;19931;-60
2023/08/06 06:45:57;;;;;;;;;;;21.60;57.40;;;;;;5102910;28;19985;-60
2023/08/06 06:48:25;;;;;;;;;;;21.60;57.40;;;;;;5116711;27;19924;-60
2023/08/06 06:50:52;;;;;;;;;;;21.60;57.40;;;;;;5123170;27;19927;-61
2023/08/06 06:53:19;;;;;;;;;;;21.60;57.40;;;;;;5096950;28;19977;-60
2023/08/06 06:55:48;;;;;;;;;;;21.60;57.40;;;;;;5098518;28;19997;-61
2023/08/06 06:58:15;;;;;;;;;;;21.60;57.40;;;;;;5125083;27;19971;-60
2023/08/06 07:00:42;;;;;;;;;;;21.60;57.40;;;;;;5088518;27;19924;-60
2023/08/06 07:03:09;;;;;;;;;;;21.60;57.40;;;;;;5095516;28;19924;-60
2023/08/06 07:05:37;;;;;;;;;;;21.60;57.40;;;;;;5107211;27;19959;-60
2023/08/06 07:08:04;;;;;;;;;;;21.60;57.40;;;;;;5108417;27;19928;-60
2023/08/06 07:10:31;;;;;;;;;;;21.60;57.40;;;;;;5091555;27;19944;-60
2023/08/06 07:12:57;;;;;;;;;;;21.60;57.40;;;;;;5096765;28;19968;-61
2023/08/06 07:15:24;;;;;;;;;;;21.60;57.40;;;;;;5111589;28;20380;-59
2023/08/06 07:17:51;;;;;;;;;;;21.60;57.40;;;;;;5088296;28;19935;-61
2023/08/06 07:20:18;;;;;;;;;;;21.60;57.40;;;;;;5103320;28;20392;-61
2023/08/06 07:22:47;;;;;;;;;;;21.60;57.40;;;;;;5096586;28;19927;-61
2023/08/06 07:25:13;;;;;;;;;;;21.60;57.40;;;;;;5086904;28;20437;-63
2023/08/06 07:27:40;;;;;;;;;;;21.60;57.40;;;;;;5096816;28;19930;-60
2023/08/06 07:30:08;;;;;;;;;;;21.60;57.40;;;;;;5098224;28;20329;-61
2023/08/06 07:32:35;;;;;;;;;;;21.60;57.40;;;;;;5088734;28;19972;-60
2023/08/06 07:35:02;;;;;;;;;;;21.60;57.40;;;;;;5111396;28;19980;-61
2023/08/06 07:37:29;;;;;;;;;;;21.60;57.40;;;;;;5095053;28;20294;-60
2023/08/06 07:39:57;;;;;;;;;;;21.60;57.40;;;;;;5097131;28;19924;-60
2023/08/06 07:42:24;;;;;;;;;;;21.60;57.40;;;;;;5107167;28;19928;-59
2023/08/06 07:44:52;;;;;;;;;;;21.60;57.50;;;;;;5092415;28;19931;-61
2023/08/06 07:47:19;;;;;;;;;;;21.60;57.40;;;;;;5113264;28;19928;-60
2023/08/06 07:49:46;;;;;;;;;;;21.60;57.40;;;;;;5093946;28;19924;-60
2023/08/06 07:52:13;;;;;;;;;;;21.60;58.00;;;;;;5107279;28;19923;-61
2023/08/06 07:54:40;;;;;;;;;;;21.60;57.50;;;;;;5075191;28;20024;-59
2023/08/06 07:57:08;;;;;;;;;;;21.60;57.40;;;;;;5096607;28;19928;-61
2023/08/06 07:59:34;;;;;;;;;;;21.70;57.50;;;;;;5125453;28;19923;-60
2023/08/06 08:02:01;;;;;;;;;;;21.60;57.40;;;;;;5086241;28;20315;-60
2023/08/06 08:04:28;;;;;;;;;;;21.70;57.60;;;;;;5099391;28;19977;-60
2023/08/06 08:06:55;;;;;;;;;;;21.60;57.50;;;;;;5103562;28;19924;-61
2023/08/06 08:09:21;;;;;;;;;;;21.60;57.50;;;;;;5095801;27;19928;-59
2023/08/06 08:11:48;;;;;;;;;;;21.60;57.50;;;;;;5111870;28;19928;-61
2023/08/06 08:14:16;;;;;;;;;;;21.60;57.50;;;;;;5117002;27;19935;-62
2023/08/06 08:16:43;;;;;;;;;;;21.70;57.60;;;;;;5106521;28;19924;-60
2023/08/06 08:19:10;;;;;;;;;;;21.60;57.60;;;;;;5117679;27;19924;-60
2023/08/06 08:21:37;;;;;;;;;;;21.60;57.60;;;;;;5104792;28;19923;-59
2023/08/06 08:24:05;;;;;;;;;;;21.70;57.70;;;;;;5117617;27;19949;-61
2023/08/06 08:26:32;;;;;;;;;;;21.60;57.60;;;;;;5098642;28;19977;-61
2023/08/06 08:28:58;;;;;;;;;;;21.60;57.60;;;;;;5106620;27;19996;-60
2023/08/06 08:31:28;;;;;;;;;;;21.70;57.70;;;;;;5101383;27;19968;-60
2023/08/06 08:33:55;;;;;;;;;;;21.60;57.70;;;;;;5124966;27;19947;-60
2023/08/06 08:36:21;;;;;;;;;;;21.60;57.70;;;;;;5114646;27;19928;-60
2023/08/06 08:38:49;;;;;;;;;;;21.60;57.70;;;;;;5109478;27;19924;-60
2023/08/06 08:41:16;;;;;;;;;;;21.60;57.70;;;;;;5107262;27;20628;-60
2023/08/06 08:43:43;;;;;;;;;;;21.60;57.60;;;;;;5125278;27;19931;-61
2023/08/06 08:46:10;;;;;;;;;;;21.60;57.70;;;;;;5106709;27;19923;-59
2023/08/06 08:48:38;;;;;;;;;;;21.70;57.70;;;;;;5121659;27;19928;-61
2023/08/06 08:51:05;;;;;;;;;;;21.60;57.70;;;;;;5107055;28;20028;-61
2023/08/06 08:53:32;;;;;;;;;;;21.70;57.70;;;;;;5102574;27;19927;-60
2023/08/06 08:55:59;;;;;;;;;;;21.60;57.70;;;;;;5126287;27;19931;-61
2023/08/06 08:58:25;;;;;;;;;;;21.60;57.70;;;;;;5129717;27;19928;-61
2023/08/06 09:00:52;;;;;;;;;;;21.60;57.70;;;;;;5119806;27;19957;-61
2023/08/06 09:03:22;;;;;;;;;;;21.60;57.70;;;;;;5097303;27;19930;-61
2023/08/06 09:05:51;;;;;;;;;;;21.70;57.80;;;;;;5099192;27;20006;-61
2023/08/06 09:08:18;;;;;;;;;;;21.60;57.70;;;;;;5108143;27;19923;-60
2023/08/06 09:10:45;;;;;;;;;;;21.70;57.80;;;;;;5112917;27;20415;-61
2023/08/06 09:13:12;;;;;;;;;;;21.70;57.80;;;;;;5100990;27;19927;-60
2023/08/06 09:15:39;;;;;;;;;;;21.70;57.80;;;;;;5096058;28;19969;-61
2023/08/06 09:18:10;;;;;;;;;;;21.70;57.80;;;;;;5127003;27;19923;-60
2023/08/06 09:20:36;;;;;;;;;;;21.70;57.80;;;;;;5100132;27;19927;-60
2023/08/06 09:23:09;;;;;;;;;;;21.70;57.80;;;;;;5107299;28;19928;-61
2023/08/06 09:25:37;;;;;;;;;;;21.70;57.90;;;;;;5130765;27;19953;-60
2023/08/06 09:28:04;;;;;;;;;;;21.70;57.80;;;;;;5102705;27;20590;-60
2023/08/06 09:30:31;;;;;;;;;;;21.70;57.80;;;;;;5111729;27;19923;-62
2023/08/06 09:32:58;;;;;;;;;;;21.70;57.80;;;;;;5103574;28;19955;-61
2023/08/06 09:35:25;;;;;;;;;;;21.70;57.80;;;;;;5096941;27;20449;-60
2023/08/06 09:37:52;;;;;;;;;;;21.70;57.80;;;;;;5097257;28;20784;-61
2023/08/06 09:40:28;;;;;;;;;;;21.70;57.80;;;;;;5102829;27;20335;-61
2023/08/06 09:42:56;;;;;;;;;;;21.70;57.90;;;;;;5107686;28;19962;-61
2023/08/06 09:45:23;;;;;;;;;;;21.70;57.90;;;;;;5103147;28;19942;-60
2023/08/06 09:47:50;;;;;;;;;;;21.70;57.90;;;;;;5116106;27;20316;-61
2023/08/06 09:50:18;;;;;;;;;;;21.70;57.90;;;;;;5100843;27;19955;-60
2023/08/06 09:52:45;;;;;;;;;;;21.70;57.90;;;;;;5118767;27;19956;-60
2023/08/06 09:55:12;;;;;;;;;;;21.70;57.90;;;;;;5099664;27;19927;-60
2023/08/06 09:57:38;;;;;;;;;;;21.70;57.80;;;;;;5129348;27;19923;-60
2023/08/06 10:00:09;;;;;;;;;;;21.70;57.90;;;;;;5095786;28;19924;-60
2023/08/06 10:02:36;;;;;;;;;;;21.70;57.80;;;;;;5095522;28;20269;-61
2023/08/06 10:05:03;;;;;;;;;;;21.70;57.90;;;;;;5098859;27;19927;-60
2023/08/06 10:07:30;;;;;;;;;;;21.70;57.90;;;;;;5103999;27;19935;-61
2023/08/06 10:09:57;;;;;;;;;;;21.70;57.90;;;;;;5115200;27;19964;-61
2023/08/06 10:12:24;;;;;;;;;;;21.70;57.90;;;;;;5103592;28;19935;-61
2023/08/06 10:14:51;;;;;;;;;;;21.70;57.90;;;;;;5097680;27;19924;-60
2023/08/06 10:17:19;;;;;;;;;;;21.70;58.00;;;;;;5110992;27;19923;-59
2023/08/06 10:19:46;;;;;;;;;;;21.70;58.00;;;;;;5094813;28;19928;-61
2023/08/06 10:22:13;;;;;;;;;;;21.70;58.00;;;;;;5097079;27;19928;-60
2023/08/06 10:24:47;;;;;;;;;;;21.70;58.00;;;;;;5105715;27;19980;-60
2023/08/06 10:27:14;;;;;;;;;;;21.70;58.10;;;;;;5110068;27;19923;-60
2023/08/06 10:29:41;;;;;;;;;;;21.70;58.10;;;;;;5099943;27;19984;-59
2023/08/06 10:32:07;;;;;;;;;;;21.70;58.10;;;;;;5120887;27;19928;-59
2023/08/06 10:34:53;;;;;;;;;;;21.70;58.10;;;;;;5103711;27;19924;-59
2023/08/06 10:37:23;;;;;;;;;;;21.70;58.10;;;;;;5094360;28;19962;-60
2023/08/06 10:39:50;;;;;;;;;;;21.70;58.20;;;;;;5111733;27;19954;-60
2023/08/06 10:42:21;;;;;;;;;;;21.70;58.20;;;;;;5096555;27;19924;-60
2023/08/06 10:45:12;;;;;;;;;;;21.70;58.20;;;;;;5101250;27;20014;-61
2023/08/06 10:47:39;;;;;;;;;;;21.70;58.20;;;;;;5101515;27;19924;-60
2023/08/06 10:50:06;;;;;;;;;;;21.70;58.30;;;;;;5131860;27;19924;-61
2023/08/06 10:52:34;;;;;;;;;;;21.70;58.30;;;;;;5096004;28;19923;-59
2023/08/06 10:55:01;;;;;;;;;;;21.70;58.30;;;;;;5121914;27;19977;-60
2023/08/06 10:57:30;;;;;;;;;;;21.70;58.30;;;;;;5117166;27;20189;-59
2023/08/06 10:59:56;;;;;;;;;;;21.70;58.30;;;;;;5127236;27;19972;-61
2023/08/06 11:02:23;;;;;;;;;;;21.70;58.30;;;;;;5095575;27;20626;-59
2023/08/06 11:04:50;;;;;;;;;;;21.70;58.30;;;;;;5097862;27;19946;-60
2023/08/06 11:07:16;;;;;;;;;;;21.70;58.30;;;;;;5102470;28;19931;-59
2023/08/06 11:09:45;;;;;;;;;;;21.70;58.30;;;;;;5105765;27;19924;-59
2023/08/06 11:12:12;;;;;;;;;;;21.70;58.30;;;;;;5105894;27;19924;-59
2023/08/06 11:14:39;;;;;;;;;;;21.70;58.30;;;;;;5104012;28;19924;-59
2023/08/06 11:17:06;;;;;;;;;;;21.70;58.30;;;;;;5100469;28;20377;-60
2023/08/06 11:19:32;;;;;;;;;;;21.70;58.30;;;;;;5123498;28;19931;-59
2023/08/06 11:22:01;;;;;;;;;;;21.70;58.20;;;;;;5111228;28;19928;-60
2023/08/06 11:24:28;;;;;;;;;;;21.70;58.20;;;;;;5099523;28;19923;-59
2023/08/06 11:26:56;;;;;;;;;;;21.70;58.20;;;;;;5100593;28;19947;-59
2023/08/06 11:29:24;;;;;;;;;;;21.70;58.30;;;;;;5103803;28;20432;-59
2023/08/06 11:31:50;;;;;;;;;;;21.70;58.20;;;;;;5119873;28;19924;-60
2023/08/06 11:34:17;;;;;;;;;;;21.70;58.20;;;;;;5116828;28;20012;-59
2023/08/06 11:36:44;;;;;;;;;;;21.70;58.20;;;;;;5088817;28;19923;-60
2023/08/06 11:39:11;;;;;;;;;;;21.70;58.20;;;;;;5121140;28;19939;-59
2023/08/06 11:41:39;;;;;;;;;;;21.70;58.20;;;;;;5109222;27;19929;-60
2023/08/06 11:44:07;;;;;;;;;;;21.70;58.20;;;;;;5122701;27;19934;-59
2023/08/06 11:46:49;;;;;;;;;;;21.70;58.20;;;;;;5133492;27;20254;-59
2023/08/06 11:49:16;;;;;;;;;;;21.70;58.20;;;;;;5136749;27;19931;-58
2023/08/06 11:51:43;;;;;;;;;;;21.70;58.20;;;;;;5118659;27;19927;-59
2023/08/06 11:54:09;;;;;;;;;;;21.70;58.20;;;;;;5097228;28;19975;-60
2023/08/06 11:56:36;;;;;;;;;;;21.70;58.20;;;;;;5104840;28;19935;-60
2023/08/06 11:59:03;;;;;;;;;;;21.70;58.20;;;;;;5101960;28;19924;-59
2023/08/06 12:01:31;;;;;;;;;;;21.70;58.20;;;;;;5101151;27;19962;-59
2023/08/06 12:03:59;;;;;;;;;;;21.70;58.20;;;;;;5108752;27;19952;-60
2023/08/06 12:06:27;;;;;;;;;;;21.70;58.20;;;;;;5127589;27;19942;-58
2023/08/06 12:08:54;;;;;;;;;;;21.70;58.20;;;;;;5103183;28;19924;-61
2023/08/06 12:11:21;;;;;;;;;;;21.70;58.20;;;;;;5107195;27;19931;-60
2023/08/06 12:13:51;;;;;;;;;;;21.70;58.20;;;;;;5102570;27;19932;-59
2023/08/06 12:16:18;;;;;;;;;;;21.70;58.20;;;;;;5103330;28;19928;-61
2023/08/06 12:18:48;;;;;;;;;;;21.70;58.10;;;;;;5100740;27;20381;-60
2023/08/06 12:21:15;;;;;;;;;;;21.70;58.10;;;;;;5102822;28;19989;-60
2023/08/06 12:23:42;;;;;;;;;;;21.70;58.10;;;;;;5109531;27;19924;-60
2023/08/06 12:26:08;;;;;;;;;;;21.70;58.10;;;;;;5108766;27;19923;-60
2023/08/06 12:28:35;;;;;;;;;;;21.70;58.10;;;;;;5096989;28;19931;-60
2023/08/06 12:31:02;;;;;;;;;;;21.70;58.20;;;;;;5112464;27;19924;-58
2023/08/06 12:33:29;;;;;;;;;;;21.70;58.20;;;;;;5108268;27;19924;-60
2023/08/06 12:35:57;;;;;;;;;;;21.70;58.20;;;;;;5100493;27;19984;-60
2023/08/06 12:38:24;;;;;;;;;;;21.70;58.30;;;;;;5101391;28;19928;-59
2023/08/06 12:40:51;;;;;;;;;;;21.70;58.50;;;;;;5085750;27;20339;-58
2023/08/06 12:43:18;;;;;;;;;;;21.70;58.70;;;;;;5104284;27;20372;-59
2023/08/06 12:45:44;;;;;;;;;;;21.70;58.70;;;;;;5097799;28;19924;-59
2023/08/06 12:48:11;;;;;;;;;;;21.70;58.80;;;;;;5130862;27;19928;-58
2023/08/06 12:50:38;;;;;;;;;;;21.70;58.80;;;;;;5109036;27;19978;-59
2023/08/06 12:53:06;;;;;;;;;;;21.70;58.80;;;;;;5104670;27;19938;-59
2023/08/06 12:55:33;;;;;;;;;;;21.70;58.90;;;;;;5105010;27;19924;-58
2023/08/06 12:58:00;;;;;;;;;;;21.70;58.90;;;;;;5100345;28;19939;-60
2023/08/06 13:00:27;;;;;;;;;;;21.70;59.00;;;;;;5102435;27;19932;-59
2023/08/06 13:02:53;;;;;;;;;;;21.70;59.10;;;;;;5125669;27;19924;-59
2023/08/06 13:05:20;;;;;;;;;;;21.60;59.00;;;;;;5104234;27;19982;-60
2023/08/06 13:07:47;;;;;;;;;;;21.60;59.00;;;;;;5096587;27;19932;-58
2023/08/06 13:10:15;;;;;;;;;;;21.60;59.10;;;;;;5104733;28;20023;-59
2023/08/06 13:12:42;;;;;;;;;;;21.60;59.00;;;;;;5101908;28;19924;-60
2023/08/06 13:15:09;;;;;;;;;;;21.60;59.00;;;;;;5124457;27;19923;-58
2023/08/06 13:17:36;;;;;;;;;;;21.60;59.10;;;;;;5094470;28;19947;-59
2023/08/06 13:20:03;;;;;;;;;;;21.60;59.10;;;;;;5099634;28;19928;-59
2023/08/06 13:22:30;;;;;;;;;;;21.60;59.10;;;;;;5102175;27;19931;-61
2023/08/06 13:24:56;;;;;;;;;;;21.50;59.10;;;;;;5127585;27;19928;-60
2023/08/06 13:27:25;;;;;;;;;;;21.60;59.30;;;;;;5104585;27;20063;-59
2023/08/06 13:29:51;;;;;;;;;;;21.50;59.30;;;;;;5124301;27;20373;-58
2023/08/06 13:32:18;;;;;;;;;;;21.50;59.40;;;;;;5099275;27;20438;-59
2023/08/06 13:34:45;;;;;;;;;;;21.50;59.40;;;;;;5121891;27;20584;-59
2023/08/06 13:37:12;;;;;;;;;;;21.50;59.40;;;;;;5132364;27;19924;-60
2023/08/06 13:39:38;;;;;;;;;;;21.50;59.50;;;;;;5118601;27;20354;-60
2023/08/06 13:42:05;;;;;;;;;;;21.50;59.40;;;;;;5103249;28;19973;-58
2023/08/06 13:44:35;;;;;;;;;;;21.50;59.40;;;;;;5101203;28;19927;-59
2023/08/06 13:47:02;;;;;;;;;;;21.50;59.40;;;;;;5128168;27;19966;-59
2023/08/06 13:49:29;;;;;;;;;;;21.50;59.30;;;;;;5099791;27;19984;-59
2023/08/06 13:51:56;;;;;;;;;;;21.50;59.30;;;;;;5120420;27;19931;-59
2023/08/06 13:54:23;;;;;;;;;;;21.50;59.30;;;;;;5102966;27;19924;-60
2023/08/06 13:56:51;;;;;;;;;;;21.50;59.30;;;;;;5108249;27;19931;-60
2023/08/06 13:59:19;;;;;;;;;;;21.50;59.20;;;;;;5101976;28;19999;-59
2023/08/06 14:01:47;;;;;;;;;;;21.50;59.20;;;;;;5097305;27;20018;-59
2023/08/06 14:04:14;;;;;;;;;;;21.50;59.20;;;;;;5102770;27;19973;-58
2023/08/06 14:06:41;;;;;;;;;;;21.50;59.10;;;;;;5103576;28;19996;-59
2023/08/06 14:09:08;;;;;;;;;;;21.50;59.10;;;;;;5105416;28;19981;-59
2023/08/06 14:11:35;;;;;;;;;;;21.60;59.20;;;;;;5105847;27;19934;-59
2023/08/06 14:14:02;;;;;;;;;;;21.60;59.20;;;;;;5095061;28;19928;-59
2023/08/06 14:16:28;;;;;;;;;;;21.60;59.20;;;;;;5101351;27;20404;-59